Lifupa Airport


Codes: FWLP/
Name: Lifupa Airport
City: Lifupa
Country: Malawi
Elevation: 3326 ft.

Photos at Lifupa Airport


   Photos courtesy of SpottingLog. You can add your own sightings and photos by signing up for a free trial today.



No photos found.

Weather at Lifupa Airport


Time (UTC)DescriptionTempratureWindCloud coverageVisibilityPressureHumidity
26-Jun-2024 00:00Clear Sky12°C4 mph, SE2%10000m1021hPa96%
26-Jun-2024 03:00Clear Sky12°C4 mph, SE9%10000m1021hPa95%
26-Jun-2024 06:00Few Clouds15°C7 mph, SE11%10000m1022hPa76%
26-Jun-2024 09:00Few Clouds24°C11 mph, SE21%10000m1020hPa36%
26-Jun-2024 12:00Broken Clouds23°C7 mph, E58%10000m1018hPa37%
26-Jun-2024 15:00Overcast Clouds20°C4 mph, E99%10000m1019hPa44%
26-Jun-2024 18:00Broken Clouds16°C4 mph, E73%10000m1021hPa56%
26-Jun-2024 21:00Clear Sky13°C4 mph, SE2%10000m1022hPa64%
27-Jun-2024 00:00Clear Sky12°C4 mph, SE6%10000m1021hPa79%
27-Jun-2024 03:00Clear Sky11°C4 mph, SE0%10000m1022hPa92%
27-Jun-2024 06:00Clear Sky16°C7 mph, SE0%10000m1023hPa69%
27-Jun-2024 09:00Clear Sky24°C9 mph, E0%10000m1021hPa35%
27-Jun-2024 12:00Scattered Clouds25°C11 mph, E25%10000m1018hPa31%
27-Jun-2024 15:00Overcast Clouds22°C9 mph, E97%10000m1019hPa39%
27-Jun-2024 18:00Overcast Clouds17°C4 mph, SE88%10000m1022hPa54%
27-Jun-2024 21:00Broken Clouds15°C4 mph, SE68%10000m1022hPa63%
28-Jun-2024 00:00Scattered Clouds13°C4 mph, E36%10000m1021hPa77%
28-Jun-2024 03:00Clear Sky11°C4 mph, SE3%10000m1022hPa85%
28-Jun-2024 06:00Clear Sky17°C7 mph, E2%10000m1023hPa62%
28-Jun-2024 09:00Clear Sky24°C9 mph, E0%10000m1020hPa36%
28-Jun-2024 12:00Few Clouds25°C11 mph, E21%10000m1017hPa31%
28-Jun-2024 15:00Broken Clouds22°C9 mph, E74%10000m1018hPa39%
28-Jun-2024 18:00Broken Clouds17°C7 mph, SE54%10000m1020hPa56%
28-Jun-2024 21:00Clear Sky13°C4 mph, S9%10000m1021hPa72%
29-Jun-2024 00:00Few Clouds12°C4 mph, SE15%10000m1021hPa83%
29-Jun-2024 03:00Few Clouds11°C4 mph, SE12%10000m1021hPa93%
29-Jun-2024 06:00Few Clouds16°C7 mph, E17%10000m1022hPa67%
29-Jun-2024 09:00Scattered Clouds24°C7 mph, E45%10000m1019hPa39%
29-Jun-2024 12:00Broken Clouds27°C4 mph, E54%10000m1015hPa29%
29-Jun-2024 15:00Overcast Clouds22°C9 mph, E94%10000m1017hPa44%
29-Jun-2024 18:00Broken Clouds16°C4 mph, NE81%10000m1019hPa66%
29-Jun-2024 21:00Few Clouds14°C4 mph, SE13%10000m1020hPa79%
30-Jun-2024 00:00Few Clouds13°C4 mph, SE11%10000m1019hPa85%
30-Jun-2024 03:00Clear Sky12°C4 mph, SE9%10000m1020hPa85%
30-Jun-2024 06:00Few Clouds18°C4 mph, E12%10000m1021hPa59%
30-Jun-2024 09:00Scattered Clouds26°C7 mph, E45%10000m1018hPa33%
30-Jun-2024 12:00Broken Clouds29°C2 mph, SE58%10000m1014hPa23%
30-Jun-2024 15:00Broken Clouds25°C4 mph, E66%10000m1014hPa31%
30-Jun-2024 18:00Broken Clouds18°C4 mph, NE71%10000m1018hPa58%
30-Jun-2024 21:00Few Clouds15°C4 mph, SE17%10000m1019hPa68%